KLM1762 EHAM-ENZV
Flight info
| Callsign | KLM1762 |
|---|---|
| Flight time | N/A |
| Altitude | 39000 |
| Route | ANDIK N873 JUIST/N0458F380 DCT OMIMA DCT MITSI DCT RIVEX |
| Aircraft | B738/M-SDE2E3FGHIRWXY/LB1 |
Departure
| Time | N/A |
|---|---|
| Airport | Amsterdam Airport Schiphol (EHAM) |
Arrival
| Time | 2026-04-14 11:39 |
|---|---|
| Airport | Stavanger Airport, Sola (ENZV) |
| Time | Latitude | Longitude | Altitude | Speed | Heading |
|---|---|---|---|---|---|
| 2026-04-14 11:05 | 56.58025 | 6.49077 | 39120 ft | 497 kts | 354° |
| 2026-04-14 11:06 | 56.61482 | 6.48794 | 39116 ft | 496 kts | 354° |
| 2026-04-14 11:06 | 56.68375 | 6.48227 | 39123 ft | 496 kts | 354° |
| 2026-04-14 11:07 | 56.75267 | 6.47659 | 39113 ft | 495 kts | 354° |
| 2026-04-14 11:07 | 56.82142 | 6.47089 | 39117 ft | 494 kts | 354° |
| 2026-04-14 11:08 | 56.89013 | 6.46518 | 39115 ft | 494 kts | 354° |
| 2026-04-14 11:08 | 56.95874 | 6.45946 | 39118 ft | 493 kts | 354° |
| 2026-04-14 11:09 | 57.02738 | 6.45543 | 39109 ft | 494 kts | 358° |
| 2026-04-14 11:09 | 57.09617 | 6.45857 | 39120 ft | 494 kts | 360° |
| 2026-04-14 11:10 | 57.19937 | 6.46545 | 39117 ft | 494 kts | 359° |
| 2026-04-14 11:10 | 57.26788 | 6.46913 | 38646 ft | 501 kts | 359° |
| 2026-04-14 11:11 | 57.30277 | 6.47085 | 37987 ft | 501 kts | 359° |
| 2026-04-14 11:11 | 57.33754 | 6.47253 | 37369 ft | 499 kts | 358° |
| 2026-04-14 11:11 | 57.37222 | 6.47422 | 36750 ft | 499 kts | 358° |
| 2026-04-14 11:11 | 57.40697 | 6.47591 | 36132 ft | 499 kts | 358° |
| 2026-04-14 11:12 | 57.44167 | 6.47760 | 35532 ft | 499 kts | 357° |
| 2026-04-14 11:12 | 57.47641 | 6.47931 | 34907 ft | 500 kts | 357° |
| 2026-04-14 11:12 | 57.51134 | 6.48102 | 34196 ft | 504 kts | 356° |
| 2026-04-14 11:12 | 57.54655 | 6.48273 | 33353 ft | 508 kts | 356° |
| 2026-04-14 11:13 | 57.58195 | 6.48447 | 32573 ft | 510 kts | 356° |
| 2026-04-14 11:13 | 57.61752 | 6.48624 | 31871 ft | 510 kts | 356° |
| 2026-04-14 11:13 | 57.65287 | 6.48804 | 31340 ft | 507 kts | 356° |
| 2026-04-14 11:13 | 57.68807 | 6.48985 | 30768 ft | 504 kts | 356° |
| 2026-04-14 11:14 | 57.72301 | 6.49163 | 30230 ft | 501 kts | 356° |
| 2026-04-14 11:14 | 57.75776 | 6.49339 | 29593 ft | 498 kts | 357° |
| 2026-04-14 11:14 | 57.79218 | 6.49513 | 29004 ft | 493 kts | 357° |
| 2026-04-14 11:14 | 57.82633 | 6.49685 | 28447 ft | 488 kts | 358° |
| 2026-04-14 11:15 | 57.86003 | 6.49855 | 27891 ft | 482 kts | 358° |
| 2026-04-14 11:15 | 57.89347 | 6.50024 | 27348 ft | 478 kts | 358° |
| 2026-04-14 11:15 | 57.92652 | 6.50191 | 26823 ft | 473 kts | 359° |
| 2026-04-14 11:15 | 57.95928 | 6.50356 | 26294 ft | 469 kts | 359° |
| 2026-04-14 11:16 | 57.99174 | 6.50520 | 25767 ft | 465 kts | 360° |
| 2026-04-14 11:16 | 58.02379 | 6.50682 | 25249 ft | 461 kts | 0° |
| 2026-04-14 11:16 | 58.04499 | 6.50790 | 24899 ft | 459 kts | 0° |
| 2026-04-14 11:16 | 58.07679 | 6.50952 | 24365 ft | 456 kts | 1° |
| 2026-04-14 11:17 | 58.10834 | 6.51112 | 23834 ft | 453 kts | 1° |
| 2026-04-14 11:17 | 58.13976 | 6.51273 | 23237 ft | 450 kts | 1° |
| 2026-04-14 11:17 | 58.17089 | 6.51434 | 22682 ft | 445 kts | 1° |
| 2026-04-14 11:17 | 58.20172 | 6.51594 | 22138 ft | 440 kts | 1° |
| 2026-04-14 11:18 | 58.23224 | 6.51751 | 21595 ft | 436 kts | 1° |
| 2026-04-14 11:18 | 58.26242 | 6.51907 | 21076 ft | 432 kts | 1° |
| 2026-04-14 11:18 | 58.29228 | 6.52062 | 20570 ft | 428 kts | 1° |
| 2026-04-14 11:18 | 58.32193 | 6.52216 | 20078 ft | 424 kts | 1° |
| 2026-04-14 11:19 | 58.35133 | 6.52368 | 19589 ft | 421 kts | 1° |
| 2026-04-14 11:19 | 58.38015 | 6.51821 | 19071 ft | 415 kts | 342° |
| 2026-04-14 11:19 | 58.40591 | 6.49554 | 18628 ft | 403 kts | 322° |
| 2026-04-14 11:19 | 58.42669 | 6.46070 | 17995 ft | 395 kts | 306° |
| 2026-04-14 11:20 | 58.44152 | 6.41773 | 17481 ft | 382 kts | 291° |
| 2026-04-14 11:20 | 58.45250 | 6.37198 | 17008 ft | 376 kts | 289° |
| 2026-04-14 11:20 | 58.46269 | 6.32631 | 16508 ft | 372 kts | 288° |
| 2026-04-14 11:20 | 58.47266 | 6.28119 | 16060 ft | 366 kts | 289° |
| 2026-04-14 11:21 | 58.48259 | 6.23659 | 15615 ft | 362 kts | 289° |
| 2026-04-14 11:21 | 58.49235 | 6.19327 | 15179 ft | 359 kts | 289° |
| 2026-04-14 11:21 | 58.50184 | 6.15145 | 14727 ft | 357 kts | 290° |
| 2026-04-14 11:21 | 58.50954 | 6.11763 | 14395 ft | 355 kts | 290° |
| 2026-04-14 11:22 | 58.51938 | 6.07449 | 13928 ft | 352 kts | 290° |
| 2026-04-14 11:22 | 58.52899 | 6.03236 | 13467 ft | 349 kts | 290° |
| 2026-04-14 11:22 | 58.53865 | 5.98998 | 13006 ft | 346 kts | 290° |
| 2026-04-14 11:22 | 58.54823 | 5.94782 | 12576 ft | 342 kts | 290° |
| 2026-04-14 11:23 | 58.55766 | 5.90620 | 12142 ft | 339 kts | 290° |
| 2026-04-14 11:23 | 58.56697 | 5.86509 | 11870 ft | 333 kts | 290° |
| 2026-04-14 11:23 | 58.57612 | 5.82461 | 11628 ft | 330 kts | 290° |
| 2026-04-14 11:23 | 58.58520 | 5.78431 | 11372 ft | 331 kts | 290° |
| 2026-04-14 11:24 | 58.59437 | 5.74349 | 11116 ft | 334 kts | 290° |
| 2026-04-14 11:24 | 58.60359 | 5.70243 | 10859 ft | 336 kts | 290° |
| 2026-04-14 11:24 | 58.61274 | 5.66162 | 10587 ft | 329 kts | 289° |
| 2026-04-14 11:24 | 58.62169 | 5.62167 | 10330 ft | 322 kts | 289° |
| 2026-04-14 11:25 | 58.63043 | 5.58259 | 10106 ft | 314 kts | 289° |
| 2026-04-14 11:25 | 58.63882 | 5.54506 | 10102 ft | 299 kts | 289° |
| 2026-04-14 11:25 | 58.64702 | 5.50822 | 9646 ft | 300 kts | 289° |
| 2026-04-14 11:25 | 58.65512 | 5.47167 | 9382 ft | 295 kts | 289° |
| 2026-04-14 11:26 | 58.66309 | 5.43573 | 9126 ft | 290 kts | 289° |
| 2026-04-14 11:26 | 58.67094 | 5.40030 | 8897 ft | 285 kts | 289° |
| 2026-04-14 11:26 | 58.67864 | 5.36545 | 8666 ft | 281 kts | 289° |
| 2026-04-14 11:26 | 58.68621 | 5.33113 | 8424 ft | 276 kts | 289° |
| 2026-04-14 11:27 | 58.69365 | 5.29739 | 8216 ft | 271 kts | 289° |
| 2026-04-14 11:27 | 58.69912 | 5.26389 | 8005 ft | 262 kts | 276° |
| 2026-04-14 11:27 | 58.70184 | 5.22967 | 7812 ft | 256 kts | 273° |
| 2026-04-14 11:27 | 58.70419 | 5.19605 | 7612 ft | 251 kts | 272° |
| 2026-04-14 11:28 | 58.70763 | 5.16330 | 7410 ft | 253 kts | 288° |
| 2026-04-14 11:28 | 58.71557 | 5.13285 | 7155 ft | 258 kts | 295° |
| 2026-04-14 11:28 | 58.72450 | 5.10274 | 6897 ft | 259 kts | 295° |
| 2026-04-14 11:28 | 58.73411 | 5.07361 | 6653 ft | 259 kts | 308° |
| 2026-04-14 11:29 | 58.74744 | 5.05031 | 6447 ft | 257 kts | 317° |
| 2026-04-14 11:29 | 58.76097 | 5.02807 | 6239 ft | 254 kts | 316° |
| 2026-04-14 11:29 | 58.77440 | 5.00597 | 6029 ft | 254 kts | 321° |
| 2026-04-14 11:29 | 58.79006 | 4.99002 | 5832 ft | 255 kts | 337° |
| 2026-04-14 11:30 | 58.80661 | 4.97789 | 5641 ft | 255 kts | 339° |
| 2026-04-14 11:30 | 58.82321 | 4.96606 | 5436 ft | 255 kts | 341° |
| 2026-04-14 11:30 | 58.84060 | 4.96082 | 5225 ft | 253 kts | 2° |
| 2026-04-14 11:30 | 58.85818 | 4.96169 | 5034 ft | 252 kts | 7° |
| 2026-04-14 11:31 | 58.87448 | 4.97213 | 4825 ft | 245 kts | 39° |
| 2026-04-14 11:31 | 58.88551 | 4.99568 | 4646 ft | 234 kts | 69° |
| 2026-04-14 11:31 | 58.88975 | 5.02517 | 4453 ft | 224 kts | 92° |
| 2026-04-14 11:31 | 58.88836 | 5.05405 | 4287 ft | 216 kts | 106° |
| 2026-04-14 11:32 | 58.88515 | 5.08234 | 4115 ft | 214 kts | 108° |
| 2026-04-14 11:32 | 58.88182 | 5.11033 | 3947 ft | 213 kts | 107° |
| 2026-04-14 11:32 | 58.87855 | 5.13827 | 3780 ft | 213 kts | 107° |
| 2026-04-14 11:32 | 58.87533 | 5.16614 | 3614 ft | 212 kts | 107° |
| 2026-04-14 11:33 | 58.87214 | 5.19391 | 3438 ft | 211 kts | 107° |
| 2026-04-14 11:33 | 58.86903 | 5.22122 | 3286 ft | 204 kts | 107° |
| 2026-04-14 11:33 | 58.86609 | 5.24729 | 3120 ft | 193 kts | 104° |
| 2026-04-14 11:34 | 58.87505 | 5.29356 | 2778 ft | 193 kts | 47° |
| 2026-04-14 11:34 | 58.88561 | 5.30940 | 2631 ft | 191 kts | 42° |
| 2026-04-14 11:34 | 58.89634 | 5.32436 | 2478 ft | 191 kts | 42° |
| 2026-04-14 11:34 | 58.90705 | 5.33944 | 2341 ft | 186 kts | 46° |
| 2026-04-14 11:35 | 58.91317 | 5.35910 | 2162 ft | 163 kts | 91° |
| 2026-04-14 11:35 | 58.91291 | 5.38008 | 2058 ft | 154 kts | 97° |
| 2026-04-14 11:35 | 58.91155 | 5.39976 | 2007 ft | 143 kts | 105° |
| 2026-04-14 11:35 | 58.90959 | 5.41842 | 1983 ft | 141 kts | 108° |
| 2026-04-14 11:36 | 58.90709 | 5.43706 | 1826 ft | 144 kts | 109° |
| 2026-04-14 11:36 | 58.90442 | 5.45553 | 1664 ft | 139 kts | 109° |
| 2026-04-14 11:36 | 58.90183 | 5.47284 | 1453 ft | 133 kts | 109° |
| 2026-04-14 11:36 | 58.89922 | 5.49008 | 1278 ft | 134 kts | 109° |
| 2026-04-14 11:37 | 58.89661 | 5.50721 | 1100 ft | 131 kts | 109° |
| 2026-04-14 11:37 | 58.89401 | 5.52431 | 927 ft | 134 kts | 108° |
| 2026-04-14 11:37 | 58.89134 | 5.54185 | 746 ft | 137 kts | 108° |
| 2026-04-14 11:37 | 58.88866 | 5.55935 | 578 ft | 135 kts | 108° |
| 2026-04-14 11:38 | 58.88582 | 5.57659 | 456 ft | 135 kts | 106° |
| 2026-04-14 11:38 | 58.88337 | 5.59406 | 234 ft | 134 kts | 107° |
| 2026-04-14 11:38 | 58.88080 | 5.61125 | 25 ft | 129 kts | 106° |
| 2026-04-14 11:38 | 58.87855 | 5.62619 | 27 ft | 97 kts | 106° |
| 2026-04-14 11:39 | 58.87707 | 5.63597 | 32 ft | 54 kts | 106° |
| 2026-04-14 11:39 | 58.87638 | 5.64058 | 31 ft | 28 kts | 106° |
| 2026-04-14 11:39 | 58.87588 | 5.64405 | 34 ft | 26 kts | 97° |
| 2026-04-14 11:39 | 58.87585 | 5.64509 | 34 ft | 2 kts | 113° |
| 2026-04-14 11:40 | 58.87565 | 5.64465 | 34 ft | 9 kts | 279° |
| 2026-04-14 11:40 | 58.87618 | 5.64179 | 33 ft | 31 kts | 286° |
| 2026-04-14 11:40 | 58.87718 | 5.63535 | 32 ft | 63 kts | 286° |
| 2026-04-14 11:40 | 58.87815 | 5.63284 | 30 ft | 15 kts | 2° |
| 2026-04-14 11:41 | 58.87912 | 5.63344 | 30 ft | 15 kts | 24° |
| 2026-04-14 11:41 | 58.87999 | 5.63318 | 29 ft | 14 kts | 307° |
| 2026-04-14 11:41 | 58.88066 | 5.63202 | 27 ft | 13 kts | 356° |
| 2026-04-14 11:41 | 58.88106 | 5.63175 | 28 ft | 4 kts | 311° |
| 2026-04-14 11:42 | 58.88131 | 5.63123 | 24 ft | 2 kts | 314° |
| 2026-04-14 11:42 | 58.88143 | 5.63099 | 28 ft | 2 kts | 312° |
| 2026-04-14 11:42 | 58.88155 | 5.63076 | 27 ft | 2 kts | 316° |
| 2026-04-14 11:42 | 58.88164 | 5.63060 | 27 ft | 0 kts | 315° |